Time;durP1;ratioP1;P1;durP2;ratioP2;P2;SDS_P1;SDS_P2;PMS_P1;PMS_P2;Temp;Humidity;BMP_temperature;BMP_pressure;BME280_temperature;BME280_humidity;BME280_pressure;Samples;Min_cycle;Max_cycle;Signal;HPM_P1;HPM_P2
2022/08/15 00:00:33;;;;;;;6.70;3.13;;;25.60;61.80;;;26.82;42.12;99497.06;4973123;28;20627;-68
2022/08/15 00:03:03;;;;;;;3.30;3.00;;;25.60;61.80;;;26.74;42.48;99492.94;4968195;28;20615;-68
2022/08/15 00:05:37;;;;;;;3.27;3.07;;;25.60;62.10;;;26.68;42.74;99493.06;4973271;28;21167;-68
2022/08/15 00:08:07;;;;;;;4.80;2.90;;;25.60;62.30;;;26.63;43.07;99491.09;4954541;28;20648;-69
2022/08/15 00:11:01;;;;;;;3.30;3.10;;;25.50;62.70;;;26.40;43.48;99487.72;4940637;28;20604;-68
2022/08/15 00:13:58;;;;;;;5.27;2.97;;;25.40;63.10;;;26.39;43.86;99486.91;4963832;28;20686;-68
2022/08/15 00:16:33;;;;;;;4.30;2.97;;;25.30;63.40;;;26.35;43.98;99485.78;4963753;28;20718;-68
2022/08/15 00:19:09;;;;;;;3.00;2.80;;;25.30;63.60;;;26.39;44.16;99496.78;4973644;28;21017;-68
2022/08/15 00:21:43;;;;;;;4.03;3.33;;;25.30;63.80;;;26.32;44.12;99496.97;4972368;28;20644;-68
2022/08/15 00:24:13;;;;;;;3.20;3.00;;;25.30;64.00;;;26.14;44.57;99500.63;4972618;28;20638;-68
2022/08/15 00:26:49;;;;;;;3.23;3.00;;;25.20;64.40;;;26.05;45.40;99502.03;4973091;28;20747;-68
2022/08/15 00:29:25;;;;;;;3.33;3.03;;;25.10;64.70;;;26.14;44.81;99495.28;4973177;28;21377;-68
2022/08/15 00:32:12;;;;;;;3.50;3.20;;;25.10;65.00;;;26.38;44.49;99500.53;4971229;28;21002;-68
2022/08/15 00:35:00;;;;;;;3.40;3.20;;;25.20;65.00;;;26.19;45.01;99502.59;4972743;28;20666;-69
2022/08/15 00:37:27;;;;;;;3.63;3.33;;;25.20;65.30;;;26.04;45.89;99503.09;4971915;28;21234;-68
2022/08/15 00:39:54;;;;;;;3.07;2.87;;;25.10;65.60;;;26.11;45.86;99498.41;4956018;28;20615;-70
2022/08/15 00:42:23;;;;;;;3.40;3.10;;;25.10;65.80;;;26.17;45.53;99507.38;4971827;28;21210;-68
2022/08/15 00:44:56;;;;;;;4.20;3.20;;;25.10;66.00;;;26.05;46.05;99514.56;4972463;28;20620;-68
2022/08/15 00:47:34;;;;;;;6.80;3.20;;;25.10;66.40;;;25.99;46.20;99500.31;4973232;28;20695;-68
2022/08/15 00:50:08;;;;;;;9.83;3.97;;;25.00;66.70;;;26.04;45.98;99510.28;4973186;28;20623;-68
2022/08/15 00:52:56;;;;;;;5.07;3.13;;;25.00;67.00;;;26.14;46.30;99511.31;4972826;28;20603;-68
2022/08/15 00:55:26;;;;;;;3.70;3.40;;;25.00;67.30;;;26.09;46.29;99513.88;4972806;28;20669;-68
2022/08/15 00:57:54;;;;;;;3.23;2.93;;;25.00;67.60;;;26.06;46.99;99522.38;4956234;28;20671;-68
2022/08/15 01:00:39;;;;;;;3.90;3.60;;;25.00;68.10;;;26.08;47.16;99522.97;4970617;28;20651;-67
2022/08/15 01:03:24;;;;;;;7.40;3.73;;;25.00;68.50;;;26.17;47.43;99521.53;4972423;28;20715;-68
2022/08/15 01:05:57;;;;;;;3.93;3.47;;;25.00;68.90;;;26.09;47.96;99521.91;4971951;28;20642;-68
2022/08/15 01:08:28;;;;;;;3.77;3.20;;;25.00;69.40;;;25.99;48.40;99519.00;4973267;28;20911;-68
2022/08/15 01:11:41;;;;;;;3.80;3.40;;;25.00;70.20;;;25.76;49.55;99534.28;4956055;28;20673;-68
2022/08/15 01:14:09;;;;;;;3.23;2.93;;;24.80;71.10;;;25.79;49.62;99526.59;4972015;28;21236;-67
2022/08/15 01:16:56;;;;;;;4.77;3.37;;;24.80;72.10;;;25.83;49.70;99535.75;4966676;28;20674;-67
2022/08/15 01:19:30;;;;;;;4.47;3.40;;;24.80;72.80;;;25.81;50.27;99527.16;4965991;28;20632;-68
2022/08/15 01:22:31;;;;;;;4.47;3.57;;;24.80;73.40;;;25.89;50.14;99532.19;4954183;28;20636;-68
2022/08/15 01:25:30;;;;;;;6.23;3.63;;;24.80;73.70;;;25.99;50.20;99529.69;4972093;28;20622;-69
2022/08/15 01:28:40;;;;;;;3.17;2.97;;;24.90;74.50;;;25.82;50.88;99533.34;4977710;28;20667;-68
2022/08/15 01:31:17;;;;;;;4.70;3.60;;;24.80;75.30;;;25.86;50.69;99534.47;4970360;28;20662;-68
2022/08/15 01:33:52;;;;;;;10.37;2.83;;;24.80;75.70;;;25.73;51.61;99546.25;4970575;28;21234;-68
2022/08/15 01:36:22;;;;;;;8.13;3.67;;;24.70;76.50;;;25.76;50.98;99544.97;4971667;28;21011;-68
2022/08/15 01:39:38;;;;;;;4.13;3.73;;;24.70;76.90;;;25.80;51.53;99540.78;4972672;28;20682;-70
2022/08/15 01:42:41;;;;;;;5.17;3.70;;;24.70;77.30;;;25.66;52.21;99532.19;4935255;28;20635;-69
2022/08/15 01:45:20;;;;;;;12.77;4.07;;;24.70;77.90;;;25.77;51.32;99538.59;4951337;28;20725;-68
2022/08/15 01:47:49;;;;;;;4.67;3.23;;;24.70;78.00;;;25.78;51.25;99542.88;4970891;28;20717;-68
2022/08/15 01:50:44;;;;;;;5.30;3.90;;;24.70;78.10;;;25.82;50.81;99539.50;4971621;28;21235;-68
2022/08/15 01:53:26;;;;;;;6.30;3.70;;;24.70;77.70;;;25.90;51.26;99536.44;4971176;28;20652;-68
2022/08/15 01:56:08;;;;;;;3.63;3.30;;;24.80;78.20;;;25.78;51.31;99530.31;4954168;28;20629;-68
2022/08/15 01:58:57;;;;;;;3.03;2.83;;;24.70;78.40;;;25.76;51.72;99532.44;4972475;28;20626;-68
2022/08/15 02:01:45;;;;;;;18.40;4.10;;;24.70;78.70;;;25.80;51.24;99530.09;4970168;28;20640;-68
2022/08/15 02:04:28;;;;;;;4.10;3.30;;;24.70;78.80;;;25.83;51.10;99533.09;4970698;28;20640;-68
2022/08/15 02:07:02;;;;;;;7.53;3.80;;;24.70;78.90;;;25.77;51.41;99523.34;4971134;28;21188;-68
2022/08/15 02:09:30;;;;;;;4.20;3.30;;;24.70;79.30;;;25.67;52.32;99523.13;4970839;28;20643;-68
2022/08/15 02:12:25;;;;;;;3.43;3.17;;;24.60;79.70;;;25.67;52.01;99530.31;4970294;28;20698;-68
2022/08/15 02:15:20;;;;;;;3.10;2.90;;;24.60;80.00;;;25.76;51.66;99529.75;4971400;28;20744;-69
2022/08/15 02:17:48;;;;;;;3.27;3.07;;;24.60;79.80;;;25.81;51.22;99521.03;4970564;28;21158;-68
2022/08/15 02:20:17;;;;;;;5.60;3.00;;;24.60;79.70;;;25.77;51.43;99526.00;4971533;28;20608;-68
2022/08/15 02:22:50;;;;;;;4.27;3.17;;;24.60;79.50;;;25.75;51.15;99522.78;4971367;28;20663;-68
2022/08/15 02:25:17;;;;;;;2.93;2.73;;;24.60;79.60;;;25.80;51.26;99525.56;4971505;28;20997;-69
2022/08/15 02:27:50;;;;;;;3.00;2.80;;;24.60;79.50;;;25.73;51.44;99524.88;4970493;28;20725;-69
2022/08/15 02:30:22;;;;;;;4.40;2.70;;;24.60;79.70;;;25.79;51.26;99523.13;4970325;28;20659;-68
2022/08/15 02:32:59;;;;;;;4.37;3.10;;;24.60;79.70;;;25.78;50.79;99522.31;4960806;28;20698;-68
2022/08/15 02:35:28;;;;;;;3.33;3.03;;;24.60;79.60;;;25.91;50.47;99519.38;4970718;28;20906;-69
2022/08/15 02:37:58;;;;;;;4.00;3.23;;;24.60;79.30;;;25.71;50.83;99518.94;4970511;28;20672;-69
2022/08/15 02:40:26;;;;;;;4.07;3.37;;;24.60;79.00;;;25.68;51.00;99522.09;4953403;29;20680;-68
2022/08/15 02:43:14;;;;;;;5.63;3.90;;;24.60;79.00;;;25.69;50.67;99518.38;4950878;28;20782;-68
2022/08/15 02:45:47;;;;;;;5.67;3.30;;;24.60;79.10;;;25.75;50.31;99517.41;4954706;28;20603;-68
2022/08/15 02:48:35;;;;;;;3.20;2.90;;;24.60;79.20;;;25.80;50.15;99514.88;4969593;28;21008;-68
2022/08/15 02:51:08;;;;;;;5.40;2.87;;;24.60;78.90;;;25.80;50.63;99522.88;4971377;28;20628;-70
2022/08/15 02:53:43;;;;;;;3.60;2.87;;;24.60;78.90;;;25.78;50.45;99527.66;4970097;28;20627;-69
2022/08/15 02:56:19;;;;;;;3.07;2.87;;;24.60;78.80;;;25.77;50.46;99511.88;4970690;28;20627;-69
2022/08/15 02:58:47;;;;;;;7.60;3.10;;;24.60;78.80;;;25.75;50.04;99512.09;4970290;28;20663;-68
2022/08/15 03:01:17;;;;;;;2.60;2.40;;;24.60;79.00;;;25.74;50.17;99512.31;4970328;28;20650;-67
2022/08/15 03:03:53;;;;;;;4.77;2.77;;;24.60;79.00;;;25.89;49.83;99513.47;4969684;28;20631;-68
2022/08/15 03:06:30;;;;;;;7.03;2.80;;;24.60;78.90;;;25.84;50.28;99513.34;4954328;28;21215;-69
2022/08/15 03:09:03;;;;;;;3.00;2.80;;;24.60;78.80;;;25.79;50.70;99515.91;4973903;28;20677;-68
2022/08/15 03:11:31;;;;;;;3.30;2.57;;;24.60;78.90;;;25.83;50.41;99510.94;4974075;28;20627;-68
2022/08/15 03:14:22;;;;;;;6.07;2.00;;;24.60;79.20;;;25.72;50.66;99509.06;4959919;28;20635;-68
2022/08/15 03:17:02;;;;;;;3.87;3.10;;;24.60;79.50;;;25.66;50.69;99512.69;4963354;28;20659;-68
2022/08/15 03:19:34;;;;;;;3.57;3.07;;;24.50;79.70;;;25.68;50.67;99510.59;4957261;28;20631;-68
2022/08/15 03:22:07;;;;;;;6.40;3.23;;;24.50;80.00;;;25.63;51.19;99502.47;4957129;28;20640;-68
2022/08/15 03:24:35;;;;;;;3.93;3.40;;;24.50;80.20;;;25.57;51.16;99514.91;4973728;28;20642;-68
2022/08/15 03:27:03;;;;;;;7.77;3.30;;;24.40;80.50;;;25.54;51.58;99514.53;4973472;28;20690;-68
2022/08/15 03:29:30;;;;;;;8.20;3.43;;;24.40;80.90;;;25.43;52.02;99513.50;4974626;28;20637;-68
2022/08/15 03:32:11;;;;;;;3.20;2.90;;;24.40;81.30;;;25.42;52.19;99521.75;4970774;28;20634;-68
2022/08/15 03:35:02;;;;;;;2.80;2.60;;;24.30;81.20;;;25.55;51.68;99526.88;4972805;28;21190;-68
2022/08/15 03:37:29;;;;;;;5.97;2.80;;;24.30;81.70;;;25.44;52.30;99536.50;4972871;28;21290;-66
2022/08/15 03:39:57;;;;;;;2.87;2.67;;;24.30;81.90;;;25.31;52.63;99528.69;4966603;28;20659;-69
2022/08/15 03:42:25;;;;;;;3.93;2.37;;;24.20;82.60;;;25.05;54.01;99537.13;4973171;28;20635;-68
2022/08/15 03:45:09;;;;;;;2.73;2.37;;;24.10;83.40;;;25.02;54.14;99540.28;4973630;28;20638;-68
2022/08/15 03:47:39;;;;;;;5.50;3.27;;;24.00;84.00;;;25.08;53.67;99534.84;4972963;28;20711;-68
2022/08/15 03:50:11;;;;;;;2.37;2.27;;;24.00;84.40;;;24.94;54.42;99537.91;4972887;28;20635;-68
2022/08/15 03:53:01;;;;;;;6.80;3.30;;;23.90;84.80;;;24.92;54.32;99540.00;4974020;28;20647;-69
2022/08/15 03:55:32;;;;;;;3.00;2.77;;;23.90;85.30;;;24.89;54.93;99537.81;4972905;28;21015;-68
2022/08/15 03:58:01;;;;;;;3.70;3.37;;;23.90;85.60;;;24.92;54.22;99538.16;4973594;28;20675;-69
2022/08/15 04:00:38;;;;;;;3.40;3.00;;;23.90;85.70;;;25.01;54.59;99541.31;4973273;28;20635;-69
2022/08/15 04:03:15;;;;;;;3.50;3.20;;;23.90;85.90;;;25.02;54.42;99548.28;4956512;28;20615;-68
2022/08/15 04:05:49;;;;;;;6.30;3.37;;;23.90;86.10;;;24.83;54.81;99546.72;4972406;28;20643;-68
2022/08/15 04:08:20;;;;;;;3.67;2.80;;;23.80;86.40;;;24.79;55.35;99534.91;4973944;28;20697;-68
2022/08/15 04:11:08;;;;;;;3.63;2.93;;;23.80;86.80;;;24.91;54.60;99538.41;4972314;28;21206;-68
2022/08/15 04:13:39;;;;;;;3.23;2.87;;;23.80;87.10;;;24.78;55.36;99541.25;4973446;28;20724;-69
2022/08/15 04:16:11;;;;;;;3.03;2.83;;;23.80;87.30;;;24.78;55.58;99546.59;4972905;28;20635;-66
2022/08/15 04:18:58;;;;;;;4.37;2.80;;;23.70;87.40;;;24.68;55.63;99555.13;4973185;28;20651;-68
2022/08/15 04:21:25;;;;;;;4.87;3.00;;;23.60;88.00;;;24.77;55.56;99555.66;4955555;28;20679;-68
2022/08/15 04:23:52;;;;;;;3.97;3.23;;;23.70;88.20;;;24.71;56.14;99561.84;4971994;28;20608;-68
2022/08/15 04:26:31;;;;;;;5.57;3.00;;;23.70;88.50;;;24.73;55.39;99563.25;4971729;28;20615;-68
2022/08/15 04:29:02;;;;;;;7.40;3.60;;;23.70;88.60;;;24.78;55.59;99563.41;4973713;28;20608;-69
2022/08/15 04:31:34;;;;;;;4.13;3.50;;;23.70;88.60;;;24.81;55.29;99564.81;4972675;28;20643;-68
2022/08/15 04:34:03;;;;;;;3.77;3.37;;;23.80;88.80;;;24.82;55.14;99569.94;4970904;28;21015;-68
2022/08/15 04:36:50;;;;;;;3.13;2.87;;;23.70;88.70;;;24.88;55.28;99569.00;4967213;28;20643;-68
2022/08/15 04:39:17;;;;;;;3.57;2.60;;;23.80;88.90;;;24.99;55.16;99570.06;4972555;28;20660;-68
2022/08/15 04:41:44;;;;;;;5.03;3.37;;;23.80;89.00;;;25.03;54.89;99565.91;4973482;28;20630;-68
2022/08/15 04:44:17;;;;;;;3.93;3.10;;;23.90;89.00;;;25.03;54.81;99571.25;4969180;28;20652;-68
2022/08/15 04:46:45;;;;;;;4.67;2.93;;;23.90;89.20;;;25.06;55.36;99574.28;4972108;28;20700;-69
2022/08/15 04:49:12;;;;;;;4.43;3.50;;;23.90;89.30;;;25.09;55.53;99570.31;4972769;28;20758;-68
2022/08/15 04:51:44;;;;;;;5.53;3.87;;;23.90;89.60;;;24.99;55.71;99570.06;4971917;28;20696;-68
2022/08/15 04:54:12;;;;;;;3.47;3.17;;;23.90;89.80;;;24.88;56.24;99570.84;4972661;28;20623;-68
2022/08/15 04:56:41;;;;;;;5.97;3.23;;;23.90;90.10;;;24.77;56.67;99569.00;4972145;28;20746;-68
2022/08/15 04:59:21;;;;;;;4.43;3.30;;;23.80;90.40;;;24.69;56.87;99570.06;4972402;28;21266;-69
2022/08/15 05:02:09;;;;;;;10.77;3.37;;;23.70;90.70;;;24.72;56.92;99566.16;4971630;28;20632;-68
2022/08/15 05:04:56;;;;;;;3.03;2.67;;;23.60;90.80;;;24.59;57.50;99573.31;4957205;28;20623;-68
2022/08/15 05:07:23;;;;;;;3.13;2.87;;;23.60;91.00;;;24.65;57.11;99575.06;4971360;28;20659;-68
2022/08/15 05:09:55;;;;;;;4.87;2.90;;;23.60;91.10;;;24.68;57.29;99577.25;4972455;28;20666;-68
2022/08/15 05:12:30;;;;;;;6.07;3.40;;;23.60;91.30;;;24.68;56.89;99571.91;4955976;28;20702;-67
2022/08/15 05:15:16;;;;;;;3.17;2.90;;;23.50;91.70;;;24.77;56.81;99572.44;4959330;28;20639;-68
2022/08/15 05:17:45;;;;;;;2.83;2.60;;;23.60;91.60;;;24.76;57.15;99578.84;4971208;28;20676;-67
2022/08/15 05:20:24;;;;;;;3.90;3.07;;;23.60;91.70;;;24.74;57.46;99586.25;4970978;28;20643;-67
2022/08/15 05:22:57;;;;;;;3.57;2.80;;;23.60;91.90;;;24.79;57.42;99582.91;4971866;28;21167;-68
2022/08/15 05:25:29;;;;;;;3.90;3.07;;;23.60;92.00;;;24.88;57.01;99577.00;4971929;28;20631;-68
2022/08/15 05:27:59;;;;;;;4.10;2.80;;;23.60;92.10;;;25.00;57.16;99579.72;4972636;28;20702;-68
2022/08/15 05:30:47;;;;;;;3.37;2.67;;;23.70;92.10;;;25.04;56.80;99587.06;4969907;28;20638;-68
2022/08/15 05:33:29;;;;;;;3.20;2.50;;;23.80;92.00;;;25.12;56.76;99585.88;4972524;28;20619;-68
2022/08/15 05:36:18;;;;;;;3.43;3.13;;;23.80;92.10;;;24.88;57.18;99573.53;4971484;28;20612;-68
2022/08/15 05:39:28;;;;;;;2.77;2.57;;;23.80;92.40;;;24.91;58.23;99578.41;4952119;28;20674;-67
2022/08/15 05:42:45;;;;;;;3.77;3.13;;;23.80;92.80;;;24.95;58.93;99564.41;4967198;28;20619;-68
2022/08/15 05:45:37;;;;;;;2.30;2.10;;;23.70;93.50;;;24.83;60.72;99571.53;4956754;28;20661;-69
2022/08/15 05:48:20;;;;;;;3.83;2.77;;;23.70;94.90;;;24.62;61.52;99593.34;4955249;28;20646;-68
2022/08/15 05:51:10;;;;;;;6.30;3.50;;;23.50;95.50;;;24.47;62.52;99588.41;4958662;28;21013;-67
2022/08/15 05:54:02;;;;;;;3.80;3.00;;;23.40;96.30;;;24.55;62.34;99592.66;4954752;28;20607;-68
2022/08/15 05:57:04;;;;;;;3.90;2.80;;;23.40;96.80;;;24.28;63.58;99581.47;4953777;28;20725;-69
2022/08/15 05:59:41;;;;;;;4.50;2.50;;;23.20;97.60;;;24.31;63.68;99583.72;4920312;28;20662;-68
2022/08/15 06:02:20;;;;;;;3.60;2.80;;;23.20;98.00;;;24.20;64.37;99575.63;4949460;28;20975;-68
2022/08/15 06:05:30;;;;;;;3.40;2.80;;;23.20;98.60;;;24.10;64.71;99591.34;4974666;28;20677;-68
2022/08/15 06:08:11;;;;;;;3.70;2.80;;;23.10;98.90;;;24.04;65.15;99585.06;4970051;28;21288;-69
2022/08/15 06:11:26;;;;;;;2.63;2.43;;;23.00;99.20;;;24.11;64.70;99588.44;4957768;28;20642;-68
2022/08/15 06:14:19;;;;;;;3.33;2.83;;;22.90;99.60;;;24.18;64.66;99581.22;4965747;28;20650;-68
2022/08/15 06:17:12;;;;;;;3.90;2.50;;;23.00;99.70;;;24.16;64.02;99591.28;4970188;28;20714;-68
2022/08/15 06:19:47;;;;;;;2.73;2.53;;;23.00;99.70;;;24.24;63.46;99580.31;4971597;28;20733;-68
2022/08/15 06:22:36;;;;;;;6.10;2.53;;;23.00;99.70;;;24.24;63.27;99579.47;4975011;28;20630;-68
2022/08/15 06:25:39;;;;;;;3.07;2.77;;;23.10;99.80;;;24.25;63.14;99579.28;4953899;28;20613;-68
2022/08/15 06:28:42;;;;;;;2.90;2.63;;;23.00;99.70;;;24.17;63.44;99586.75;4983348;28;20654;-68
2022/08/15 06:31:32;;;;;;;2.90;2.70;;;23.10;99.60;;;24.13;63.64;99591.72;4969081;28;20631;-68
2022/08/15 06:34:44;;;;;;;3.40;3.10;;;23.00;99.80;;;24.29;62.85;99588.47;4971265;28;20731;-69
2022/08/15 06:37:28;;;;;;;3.37;2.83;;;23.00;99.80;;;24.38;62.28;99586.31;4948604;28;21294;-68
2022/08/15 06:40:41;;;;;;;3.43;3.20;;;23.20;99.70;;;24.60;61.97;99587.44;4955529;28;20668;-69
2022/08/15 06:43:11;;;;;;;3.87;3.53;;;23.30;99.50;;;24.78;60.78;99599.94;4974476;28;20619;-69
2022/08/15 06:45:46;;;;;;;5.13;3.30;;;23.50;99.00;;;25.08;59.33;99595.41;4955565;29;20671;-68
2022/08/15 06:48:29;;;;;;;4.00;3.70;;;23.60;98.70;;;25.15;59.10;99590.78;4955821;28;21106;-69
2022/08/15 06:51:17;;;;;;;7.40;3.70;;;23.70;98.40;;;24.99;58.64;99596.75;4972039;28;21001;-70
2022/08/15 06:53:55;;;;;;;7.03;3.60;;;23.70;97.90;;;24.78;59.09;99613.28;4975117;28;20623;-66
2022/08/15 06:56:39;;;;;;;5.13;3.93;;;23.60;97.90;;;24.64;59.94;99623.28;4958822;28;21230;-69
2022/08/15 06:59:24;;;;;;;3.90;3.53;;;23.50;98.00;;;24.50;59.97;99625.31;4973788;28;20666;-68
2022/08/15 07:02:51;;;;;;;4.10;3.70;;;23.40;98.20;;;24.33;60.19;99612.81;4940041;29;21184;-68
2022/08/15 07:05:29;;;;;;;5.33;3.10;;;23.20;98.50;;;24.35;60.16;99616.88;4964857;28;20648;-70
2022/08/15 07:08:22;;;;;;;3.90;3.60;;;23.20;98.60;;;24.34;60.23;99615.25;4958190;28;20642;-68
2022/08/15 07:11:27;;;;;;;4.03;3.70;;;23.20;98.70;;;24.40;59.66;99613.56;4951117;29;20641;-68
2022/08/15 07:14:06;;;;;;;5.93;3.33;;;23.20;98.40;;;24.38;59.94;99615.63;4977739;28;20746;-68
2022/08/15 07:17:00;;;;;;;3.90;3.60;;;23.20;98.40;;;24.27;59.77;99619.03;4967026;28;20741;-69
2022/08/15 07:19:27;;;;;;;5.47;4.00;;;23.20;98.40;;;24.42;59.33;99622.97;4972155;28;21013;-69
2022/08/15 07:22:02;;;;;;;10.27;3.30;;;23.20;98.30;;;24.43;59.16;99618.41;4974008;28;21262;-68
2022/08/15 07:24:33;;;;;;;2.30;2.20;;;23.20;98.40;;;24.50;58.57;99617.31;4974305;28;20702;-68
2022/08/15 07:27:18;;;;;;;4.40;4.00;;;23.30;98.10;;;24.33;59.39;99623.47;4972533;28;20713;-67
2022/08/15 07:30:06;;;;;;;4.53;3.40;;;23.20;98.10;;;24.27;59.81;99627.84;4973493;28;20635;-68
2022/08/15 07:32:46;;;;;;;7.20;4.33;;;23.10;98.30;;;24.35;59.16;99624.06;4971562;28;20657;-68
2022/08/15 07:35:14;;;;;;;4.27;3.30;;;23.10;98.50;;;24.36;59.59;99621.16;4972049;28;20638;-68
2022/08/15 07:37:46;;;;;;;5.20;4.00;;;23.10;98.60;;;24.30;60.39;99626.59;4973247;28;20643;-68
2022/08/15 07:40:14;;;;;;;6.63;3.67;;;23.20;98.80;;;24.44;60.67;99630.72;4972569;28;21198;-67
2022/08/15 07:42:45;;;;;;;3.77;3.47;;;23.30;99.20;;;24.46;60.33;99640.13;4960804;28;20635;-69
2022/08/15 07:45:39;;;;;;;3.93;3.63;;;23.30;99.10;;;24.53;59.77;99643.50;4973054;28;20719;-68
2022/08/15 07:48:27;;;;;;;4.73;4.30;;;23.30;98.90;;;24.90;59.88;99646.97;4937589;29;20636;-68
2022/08/15 07:51:31;;;;;;;4.00;3.60;;;23.50;99.50;;;25.55;58.10;99641.72;4955885;28;20616;-68
2022/08/15 07:54:05;;;;;;;3.20;3.00;;;23.90;99.00;;;25.73;58.08;99645.09;4956541;28;20631;-68
2022/08/15 07:56:57;;;;;;;3.27;2.97;;;24.10;98.70;;;25.77;58.55;99648.13;4956924;28;20631;-68
2022/08/15 07:59:30;;;;;;;4.90;3.80;;;24.30;98.80;;;25.80;57.84;99653.81;4973024;28;20670;-68
2022/08/15 08:02:27;;;;;;;3.00;2.33;;;24.40;98.70;;;25.59;58.56;99649.03;4954013;28;20604;-67
2022/08/15 08:05:13;;;;;;;3.63;3.33;;;24.20;98.70;;;25.67;58.82;99654.03;4966168;28;20639;-69
2022/08/15 08:07:54;;;;;;;4.10;3.80;;;24.30;98.60;;;25.90;57.56;99648.69;4972691;28;20643;-68
2022/08/15 08:10:49;;;;;;;4.20;3.47;;;24.40;98.30;;;26.12;56.52;99654.28;4972965;28;20698;-68
2022/08/15 08:13:46;;;;;;;7.57;3.47;;;24.50;97.60;;;25.99;55.24;99652.66;4970984;28;21042;-68
2022/08/15 08:16:59;;;;;;;3.60;3.20;;;24.60;97.00;;;25.80;55.99;99656.47;4964436;28;21621;-69
2022/08/15 08:20:03;;;;;;;4.13;3.83;;;24.60;96.80;;;26.29;54.63;99659.72;4956356;28;20762;-69
2022/08/15 08:22:46;;;;;;;4.87;3.33;;;24.70;96.50;;;27.08;51.46;99661.59;4969576;28;20913;-69
2022/08/15 08:25:31;;;;;;;4.57;3.47;;;25.20;95.30;;;27.54;50.46;99666.72;4956903;28;21034;-69
2022/08/15 08:28:29;;;;;;;3.33;3.13;;;25.50;94.40;;;28.31;48.50;99664.94;4958802;28;20667;-68
2022/08/15 08:31:26;;;;;;;5.37;3.07;;;26.00;93.80;;;28.38;47.92;99663.72;4972907;28;20646;-69
2022/08/15 08:34:34;;;;;;;3.10;2.90;;;26.40;92.60;;;29.28;45.39;99665.03;4961145;28;20639;-69
2022/08/15 08:37:29;;;;;;;4.53;2.67;;;26.80;91.60;;;29.52;44.50;99666.28;4938336;29;20641;-69
2022/08/15 08:43:19;;;;;;;3.67;2.90;;;27.90;88.40;;;33.89;36.55;99676.19;4970337;28;20678;-68
2022/08/15 08:46:41;;;;;;;3.33;3.13;;;29.70;83.40;;;36.33;32.59;99674.00;4970798;28;21187;-69
2022/08/15 08:49:39;;;;;;;2.83;2.70;;;31.40;77.10;;;33.60;35.75;99673.50;4971686;28;20996;-69
2022/08/15 08:52:53;;;;;;;2.93;2.73;;;31.00;73.80;;;32.12;38.50;99670.16;4972961;28;20620;-69
2022/08/15 08:55:30;;;;;;;3.70;2.37;;;29.90;75.70;;;30.73;41.09;99667.06;4959185;28;20639;-69
2022/08/15 08:58:19;;;;;;;3.93;2.40;;;29.40;76.70;;;30.56;42.02;99668.06;4957709;28;20635;-69
2022/08/15 09:01:12;;;;;;;3.07;2.77;;;28.70;79.60;;;31.20;40.56;99670.44;4957786;28;21436;-69
2022/08/15 09:03:48;;;;;;;3.53;3.30;;;28.80;79.30;;;32.75;38.07;99674.00;4955297;28;20624;-70
2022/08/15 09:06:23;;;;;;;2.93;2.73;;;29.50;78.20;;;35.68;32.87;99684.19;4955000;28;20673;-69
2022/08/15 09:09:31;;;;;;;3.53;3.23;;;31.20;74.00;;;37.12;29.79;99688.94;4955939;28;20619;-69
2022/08/15 09:15:03;;;;;;;3.03;2.80;;;32.30;68.50;;;33.73;35.11;99687.44;4970857;28;20632;-69
2022/08/15 09:17:48;;;;;;;3.23;3.03;;;31.50;68.60;;;33.20;36.01;99683.78;4970578;28;20663;-69
2022/08/15 09:20:39;;;;;;;3.37;3.17;;;30.80;70.80;;;35.73;32.07;99681.38;4969457;28;20664;-70
2022/08/15 09:23:10;;;;;;;3.47;3.20;;;31.80;69.30;;;36.46;30.91;99675.94;4971371;28;20619;-70
2022/08/15 09:25:59;;;;;;;3.60;3.30;;;32.50;68.00;;;34.88;33.49;99677.25;4953096;28;20654;-69
2022/08/15 09:28:40;;;;;;;4.07;3.77;;;32.20;67.60;;;33.08;36.29;99681.41;4970754;28;20727;-71
2022/08/15 09:31:20;;;;;;;3.33;3.13;;;31.30;69.00;;;31.80;38.30;99675.84;4963251;28;20640;-69
2022/08/15 09:34:02;;;;;;;3.10;2.90;;;30.40;70.10;;;30.80;39.73;99681.06;4969677;28;20639;-69
2022/08/15 09:36:48;;;;;;;3.20;3.00;;;29.50;71.70;;;30.19;41.68;99666.53;4970980;28;20663;-68
2022/08/15 09:39:31;;;;;;;3.70;3.40;;;28.90;73.40;;;29.47;43.05;99672.47;4971090;28;20714;-68
2022/08/15 09:42:09;;;;;;;3.93;3.60;;;28.30;75.60;;;28.98;44.35;99671.66;4972009;28;20667;-69
2022/08/15 09:45:17;;;;;;;3.47;3.27;;;27.80;77.50;;;28.73;45.24;99670.59;4971632;28;20635;-69
2022/08/15 09:48:03;;;;;;;3.37;3.13;;;27.40;79.20;;;28.04;46.32;99666.72;4971824;28;20701;-69
2022/08/15 09:50:52;;;;;;;3.60;3.30;;;27.00;79.60;;;28.24;46.39;99666.97;4970108;28;20651;-70
2022/08/15 09:53:45;;;;;;;3.20;3.00;;;26.80;81.30;;;27.74;47.83;99660.88;4970115;28;21198;-69
2022/08/15 09:56:30;;;;;;;3.17;2.87;;;26.60;82.30;;;27.95;47.79;99663.63;4947989;28;20659;-69
2022/08/15 09:59:22;;;;;;;2.73;2.63;;;26.50;83.70;;;29.53;43.05;99665.25;4970340;28;21484;-69
2022/08/15 10:02:19;;;;;;;3.50;3.10;;;27.20;81.60;;;29.17;44.11;99666.81;4935120;28;20664;-69
2022/08/15 10:05:43;;;;;;;3.70;2.50;;;27.50;80.10;;;28.33;45.56;99654.78;4959430;28;20639;-69
2022/08/15 10:08:13;;;;;;;3.27;3.07;;;27.30;80.20;;;28.59;45.62;99658.63;4968935;28;20647;-69
2022/08/15 10:11:11;;;;;;;3.23;2.93;;;27.00;81.40;;;29.60;43.26;99655.09;4970965;28;20652;-69
2022/08/15 10:13:38;;;;;;;4.53;2.97;;;27.50;80.70;;;30.22;42.33;99649.88;4970545;28;20643;-69
2022/08/15 10:16:52;;;;;;;3.60;3.30;;;27.90;79.60;;;30.44;41.50;99659.41;4970799;28;20690;-69
2022/08/15 10:19:38;;;;;;;4.03;3.63;;;28.50;78.00;;;30.57;40.68;99650.84;4961368;28;20758;-69
2022/08/15 10:22:25;;;;;;;3.40;3.17;;;28.60;77.50;;;31.02;39.92;99658.28;4957269;28;20603;-69
2022/08/15 10:25:17;;;;;;;3.60;3.30;;;28.80;76.50;;;31.06;40.58;99662.06;4969618;28;20675;-70
2022/08/15 10:28:07;;;;;;;3.30;2.90;;;29.00;77.00;;;30.85;41.67;99662.25;4971270;28;20698;-68
2022/08/15 10:31:05;;;;;;;3.30;3.10;;;28.90;77.90;;;30.86;43.05;99664.69;4957190;28;20610;-70
2022/08/15 10:33:33;;;;;;;3.17;3.00;;;28.80;80.10;;;30.57;43.52;99661.63;4969488;28;21062;-69
2022/08/15 10:36:27;;;;;;;6.43;3.60;;;28.70;81.00;;;30.93;45.26;99651.78;4970023;28;20801;-70
2022/08/15 10:39:50;;;;;;;6.70;3.40;;;28.80;83.90;;;31.22;43.86;99654.81;4969919;28;20659;-72
2022/08/15 10:42:37;;;;;;;3.47;3.27;;;29.00;83.00;;;31.31;43.00;99653.19;4967602;28;20670;-69
2022/08/15 10:45:29;;;;;;;4.10;3.73;;;29.20;81.50;;;31.29;43.06;99655.34;4946295;28;20638;-69
2022/08/15 10:48:22;;;;;;;3.63;3.40;;;29.30;81.40;;;31.18;42.73;99659.91;4978849;28;20631;-69
2022/08/15 10:51:43;;;;;;;3.63;3.33;;;29.30;80.40;;;31.52;41.07;99657.53;4966389;28;21005;-70
2022/08/15 10:54:38;;;;;;;4.50;2.87;;;29.50;78.50;;;31.23;40.88;99657.22;4970506;28;20634;-69
2022/08/15 10:57:09;;;;;;;3.80;3.50;;;29.40;77.60;;;30.97;40.82;99655.56;4970926;28;21183;-66
2022/08/15 10:59:50;;;;;;;3.67;3.37;;;29.20;76.40;;;30.96;40.73;99658.53;4969899;28;20698;-69
2022/08/15 11:02:44;;;;;;;3.90;3.43;;;29.10;76.50;;;30.61;41.56;99653.81;4952334;29;20620;-70
2022/08/15 11:05:31;;;;;;;3.97;3.67;;;28.90;76.20;;;30.95;40.92;99659.59;4954466;28;20707;-70
2022/08/15 11:08:02;;;;;;;3.67;3.47;;;29.00;76.50;;;31.34;40.07;99663.44;4970599;28;20646;-69
2022/08/15 11:10:32;;;;;;;4.30;4.00;;;29.30;76.50;;;31.45;40.23;99656.19;4963301;28;20642;-67
2022/08/15 11:13:10;;;;;;;4.70;3.80;;;29.50;75.90;;;31.39;39.81;99663.44;4956284;28;21007;-66
2022/08/15 11:15:56;;;;;;;12.13;9.77;;;29.50;75.10;;;30.96;40.67;99650.47;4946511;28;20631;-67
2022/08/15 11:18:45;;;;;;;4.20;3.90;;;29.30;75.20;;;30.37;40.92;99661.53;4966869;28;20655;-66
2022/08/15 11:21:37;;;;;;;3.00;2.80;;;29.10;74.60;;;30.20;40.66;99655.50;4957753;28;20658;-69
2022/08/15 11:24:11;;;;;;;2.60;2.40;;;28.80;74.70;;;29.84;41.81;99654.47;4944255;28;20652;-68
2022/08/15 11:26:45;;;;;;;3.07;2.87;;;28.50;75.00;;;29.67;41.72;99650.28;4945235;28;20741;-68
2022/08/15 11:29:25;;;;;;;3.77;3.40;;;28.40;74.90;;;29.57;42.14;99651.03;4975005;28;20689;-67
2022/08/15 11:31:58;;;;;;;3.77;3.47;;;28.20;75.80;;;29.26;43.99;99656.41;4974655;28;21250;-68